Time;durP1;ratioP1;P1;durP2;ratioP2;P2;SDS_P1;SDS_P2;PMS_P1;PMS_P2;Temp;Humidity;BMP_temperature;BMP_pressure;BME280_temperature;BME280_humidity;BME280_pressure;Samples;Min_cycle;Max_cycle;Signal;HPM_P1;HPM_P2
2021/12/28 00:01:54;;;;;;;20.70;12.73;;;4.10;99.90;;;;;;5048305;28;20256;-66
2021/12/28 00:04:22;;;;;;;19.53;12.23;;;4.00;99.90;;;;;;5046732;28;20562;-66
2021/12/28 00:06:49;;;;;;;18.57;11.47;;;4.10;99.90;;;;;;5047198;28;20257;-66
2021/12/28 00:09:16;;;;;;;20.07;12.10;;;4.20;99.90;;;;;;5047528;28;20873;-66
2021/12/28 00:11:43;;;;;;;21.10;12.60;;;4.40;99.90;;;;;;5048050;28;20640;-66
2021/12/28 00:14:10;;;;;;;20.47;12.17;;;4.30;99.90;;;;;;5048051;28;20292;-66
2021/12/28 00:17:58;;;;;;;21.63;12.90;;;4.30;99.90;;;;;;5046594;28;20199;-66
2021/12/28 00:19:30;;;;;;;19.03;11.20;;;4.20;99.90;;;;;;5047614;28;20205;-66
2021/12/28 00:21:57;;;;;;;20.33;11.93;;;4.20;99.90;;;;;;5049457;28;20294;-66
2021/12/28 00:24:24;;;;;;;20.33;11.97;;;4.40;99.90;;;;;;5046491;28;20256;-66
2021/12/28 00:26:53;;;;;;;19.67;12.13;;;4.30;99.90;;;;;;5048213;28;20203;-66
2021/12/28 00:29:22;;;;;;;20.23;12.00;;;4.40;99.90;;;;;;5048828;28;20211;-66
2021/12/28 00:31:49;;;;;;;19.63;11.73;;;4.30;99.90;;;;;;5048471;28;20628;-66
2021/12/28 00:34:16;;;;;;;21.20;12.43;;;4.50;99.90;;;;;;5046513;28;20231;-66
2021/12/28 00:36:44;;;;;;;19.57;11.63;;;4.40;99.90;;;;;;5047036;28;20491;-66
2021/12/28 00:39:11;;;;;;;19.93;11.97;;;4.30;99.90;;;;;;5048260;28;20199;-66
2021/12/28 00:41:38;;;;;;;19.07;11.73;;;4.30;99.90;;;;;;5047854;28;20199;-66
2021/12/28 00:44:05;;;;;;;19.47;12.27;;;4.20;99.90;;;;;;5047309;28;20265;-66
2021/12/28 00:46:32;;;;;;;19.57;11.40;;;4.30;99.90;;;;;;5047507;28;20207;-66
2021/12/28 00:48:59;;;;;;;19.10;11.73;;;4.30;99.90;;;;;;5047310;28;20687;-66
2021/12/28 00:51:26;;;;;;;19.50;11.70;;;4.30;99.90;;;;;;5047515;28;20237;-66
2021/12/28 00:53:55;;;;;;;21.87;12.40;;;4.30;99.90;;;;;;5046705;28;20280;-66
2021/12/28 00:56:22;;;;;;;19.77;11.77;;;4.50;99.90;;;;;;5047868;28;20199;-66
2021/12/28 00:58:49;;;;;;;21.33;11.60;;;4.40;99.90;;;;;;5047722;28;20203;-66
2021/12/28 01:01:16;;;;;;;19.17;11.60;;;4.30;99.90;;;;;;5047111;28;20594;-66
2021/12/28 01:03:43;;;;;;;20.17;11.53;;;4.30;99.90;;;;;;5047930;28;20245;-66
2021/12/28 01:06:10;;;;;;;20.70;11.93;;;4.50;99.90;;;;;;5049601;28;20202;-66
2021/12/28 01:08:38;;;;;;;20.50;11.77;;;4.50;99.90;;;;;;5048151;28;20202;-66
2021/12/28 01:11:07;;;;;;;19.07;11.60;;;4.40;99.90;;;;;;5046480;28;20202;-66
2021/12/28 01:13:35;;;;;;;17.50;10.70;;;4.60;99.90;;;;;;5048273;28;20226;-72
2021/12/28 01:16:02;;;;;;;17.77;11.03;;;4.60;99.90;;;;;;5049865;28;20503;-78
2021/12/28 01:18:29;;;;;;;19.63;11.30;;;4.60;99.90;;;;;;5049644;28;20207;-79
2021/12/28 01:20:56;;;;;;;17.70;11.00;;;4.50;99.90;;;;;;5043425;28;20207;-78
2021/12/28 01:23:25;;;;;;;17.83;11.03;;;4.50;99.90;;;;;;5047673;28;20325;-78
2021/12/28 01:25:52;;;;;;;20.37;11.73;;;4.60;99.90;;;;;;5048637;28;20225;-78
2021/12/28 01:28:21;;;;;;;16.93;10.57;;;4.70;99.90;;;;;;5047380;28;20638;-77
2021/12/28 01:30:48;;;;;;;18.17;10.47;;;4.70;99.90;;;;;;5047962;28;20203;-78
2021/12/28 01:33:15;;;;;;;17.73;10.60;;;4.80;99.90;;;;;;5052136;28;20231;-78
2021/12/28 01:35:42;;;;;;;18.53;11.70;;;4.60;99.90;;;;;;5051636;28;20235;-77
2021/12/28 01:38:09;;;;;;;18.23;10.93;;;4.70;99.90;;;;;;5050301;28;20234;-78
2021/12/28 01:40:39;;;;;;;15.63;10.20;;;4.70;99.90;;;;;;5051457;28;20561;-78
2021/12/28 01:43:11;;;;;;;18.10;10.43;;;4.80;99.90;;;;;;5050416;28;20191;-78
2021/12/28 01:45:48;;;;;;;18.53;11.10;;;4.80;99.90;;;;;;5050905;28;20234;-77
2021/12/28 01:48:19;;;;;;;18.07;10.97;;;4.80;99.90;;;;;;5051718;28;20676;-78
2021/12/28 01:50:48;;;;;;;17.00;9.90;;;4.60;99.90;;;;;;5051799;28;20270;-77
2021/12/28 01:53:17;;;;;;;17.23;10.40;;;4.70;99.90;;;;;;5051237;28;20360;-77
2021/12/28 01:55:47;;;;;;;14.07;9.27;;;4.70;99.90;;;;;;5050658;28;20207;-78
2021/12/28 01:58:15;;;;;;;18.10;10.73;;;4.60;99.90;;;;;;5051873;28;20717;-78
2021/12/28 02:00:44;;;;;;;15.47;9.77;;;4.60;99.90;;;;;;5049251;28;20233;-78
2021/12/28 02:03:15;;;;;;;17.23;10.83;;;4.60;99.90;;;;;;5050216;28;20293;-77
2021/12/28 02:05:43;;;;;;;16.57;9.57;;;4.70;99.90;;;;;;5051772;28;20645;-78
2021/12/28 02:08:12;;;;;;;16.30;10.23;;;4.70;99.90;;;;;;5051739;28;20204;-78
2021/12/28 02:10:41;;;;;;;18.80;10.90;;;4.80;99.90;;;;;;5051467;28;20577;-77
2021/12/28 02:13:08;;;;;;;16.57;10.10;;;4.80;99.90;;;;;;5052097;28;20223;-78
2021/12/28 02:15:36;;;;;;;15.97;9.93;;;4.70;99.90;;;;;;5049392;28;20199;-78
2021/12/28 02:18:04;;;;;;;16.03;9.83;;;4.80;99.90;;;;;;5049717;28;20204;-78
2021/12/28 02:20:33;;;;;;;16.03;9.57;;;4.80;99.90;;;;;;5010950;28;1146969;-78
2021/12/28 02:23:01;;;;;;;15.37;9.70;;;4.70;99.90;;;;;;5051076;28;20257;-77
2021/12/28 02:25:28;;;;;;;15.40;9.50;;;4.70;99.90;;;;;;5053389;28;20203;-78
2021/12/28 02:27:55;;;;;;;15.07;9.13;;;4.80;99.90;;;;;;5052553;28;20199;-78
2021/12/28 02:30:22;;;;;;;15.57;9.43;;;4.70;99.90;;;;;;5048287;28;20203;-77
2021/12/28 02:32:51;;;;;;;16.77;9.53;;;4.60;99.90;;;;;;5052593;28;20203;-78
2021/12/28 02:35:20;;;;;;;16.03;10.00;;;4.60;99.90;;;;;;5051768;28;20657;-78
2021/12/28 02:37:49;;;;;;;16.27;9.47;;;4.60;99.90;;;;;;5052343;28;20195;-77
2021/12/28 02:40:18;;;;;;;15.70;9.23;;;4.60;99.90;;;;;;5048855;28;20195;-77
2021/12/28 02:42:46;;;;;;;15.77;9.23;;;4.60;99.90;;;;;;5051550;28;20333;-78
2021/12/28 02:45:15;;;;;;;13.37;8.63;;;4.80;99.90;;;;;;5053715;28;20633;-78
2021/12/28 02:47:45;;;;;;;15.60;9.47;;;4.80;99.90;;;;;;5052960;28;20229;-78
2021/12/28 02:50:15;;;;;;;15.47;9.43;;;4.80;99.90;;;;;;5051948;28;20248;-78
2021/12/28 02:52:42;;;;;;;15.50;9.57;;;4.80;99.90;;;;;;5048652;28;20661;-78
2021/12/28 02:55:13;;;;;;;16.33;9.60;;;4.70;99.90;;;;;;5052293;28;21812;-78
2021/12/28 02:57:47;;;;;;;13.77;8.97;;;4.80;99.90;;;;;;5051965;28;20203;-79
2021/12/28 03:00:15;;;;;;;15.23;9.03;;;4.70;99.90;;;;;;5051190;28;20207;-78
2021/12/28 03:02:42;;;;;;;15.00;9.03;;;4.60;99.90;;;;;;5051229;28;20203;-78
2021/12/28 03:05:09;;;;;;;14.23;8.90;;;4.70;99.90;;;;;;5052061;28;20202;-77
2021/12/28 03:07:37;;;;;;;17.60;10.43;;;4.90;99.90;;;;;;5052996;28;20207;-78
2021/12/28 03:10:04;;;;;;;15.77;9.57;;;4.90;99.90;;;;;;5051924;28;20597;-78
2021/12/28 03:12:33;;;;;;;16.23;9.73;;;4.90;99.90;;;;;;5050461;28;20248;-78
2021/12/28 03:15:00;;;;;;;15.90;9.40;;;4.90;99.90;;;;;;5052097;28;20284;-78
2021/12/28 03:17:27;;;;;;;13.90;8.47;;;5.00;99.90;;;;;;5052826;28;20273;-78
2021/12/28 03:19:54;;;;;;;16.20;9.13;;;5.10;99.90;;;;;;5050773;28;20195;-78
2021/12/28 03:22:21;;;;;;;14.93;8.90;;;5.20;99.90;;;;;;5051263;28;20718;-78
2021/12/28 03:24:48;;;;;;;13.90;9.03;;;5.00;99.90;;;;;;5052126;28;20657;-78
2021/12/28 03:27:15;;;;;;;14.43;8.60;;;5.00;99.90;;;;;;5052388;28;20207;-78
2021/12/28 03:29:43;;;;;;;13.63;8.40;;;5.10;99.90;;;;;;5052687;28;20248;-78
2021/12/28 03:32:10;;;;;;;13.53;8.70;;;5.10;99.90;;;;;;5051334;28;20244;-78
2021/12/28 03:34:37;;;;;;;13.30;8.37;;;5.00;99.90;;;;;;5049727;28;20219;-77
2021/12/28 03:37:05;;;;;;;12.97;7.93;;;5.10;99.90;;;;;;5052084;28;20695;-78
2021/12/28 03:39:32;;;;;;;12.47;8.23;;;5.10;99.90;;;;;;5049167;28;20199;-78
2021/12/28 03:41:59;;;;;;;12.80;7.80;;;5.00;99.90;;;;;;5052080;28;20230;-78
2021/12/28 03:44:26;;;;;;;12.03;8.13;;;5.20;99.90;;;;;;5051638;28;20722;-78
2021/12/28 03:46:54;;;;;;;11.97;7.93;;;5.10;99.90;;;;;;5051610;28;20226;-78
2021/12/28 03:49:21;;;;;;;11.13;7.57;;;5.00;99.90;;;;;;5052175;28;20608;-78
2021/12/28 03:51:48;;;;;;;11.40;7.37;;;5.00;99.90;;;;;;5051792;28;21094;-78
2021/12/28 03:54:15;;;;;;;42.07;28.43;;;5.00;99.90;;;;;;5046946;28;20759;-78
2021/12/28 03:56:42;;;;;;;13.63;8.13;;;5.00;99.90;;;;;;5050113;28;20642;-78
2021/12/28 03:59:09;;;;;;;12.50;8.10;;;4.90;99.90;;;;;;5050850;28;20734;-78
2021/12/28 04:01:36;;;;;;;13.07;8.53;;;4.80;99.90;;;;;;5046325;28;20645;-78
2021/12/28 04:04:05;;;;;;;13.13;8.23;;;4.90;99.90;;;;;;5051584;28;20196;-78
2021/12/28 04:06:32;;;;;;;14.57;8.63;;;4.80;99.90;;;;;;5047622;28;20235;-78
2021/12/28 04:09:02;;;;;;;13.20;8.57;;;4.90;99.90;;;;;;5050073;28;20637;-77
2021/12/28 04:11:29;;;;;;;13.27;8.23;;;4.90;99.90;;;;;;5051713;28;20306;-79
2021/12/28 04:14:01;;;;;;;12.73;7.97;;;5.00;99.90;;;;;;5052006;28;20215;-78
2021/12/28 04:16:28;;;;;;;14.03;8.13;;;5.00;99.90;;;;;;5050558;28;20257;-78
2021/12/28 04:18:55;;;;;;;14.43;9.13;;;4.90;99.90;;;;;;5049617;28;20203;-79
2021/12/28 04:21:24;;;;;;;13.00;8.33;;;5.10;99.90;;;;;;5051179;28;20606;-78
2021/12/28 04:23:52;;;;;;;17.40;9.60;;;5.10;99.90;;;;;;5050947;28;20645;-78
2021/12/28 04:26:20;;;;;;;14.00;9.10;;;5.00;99.90;;;;;;5051782;28;20218;-78
2021/12/28 04:28:47;;;;;;;13.40;8.73;;;5.00;99.90;;;;;;5053456;28;20207;-78
2021/12/28 04:31:14;;;;;;;13.93;8.50;;;4.90;99.90;;;;;;5046786;28;20241;-78
2021/12/28 04:33:42;;;;;;;14.67;9.57;;;5.10;99.90;;;;;;5051307;28;20718;-78
2021/12/28 04:36:10;;;;;;;14.03;8.67;;;5.10;99.90;;;;;;5048037;28;20210;-78
2021/12/28 04:38:41;;;;;;;13.90;9.00;;;5.00;99.90;;;;;;5051360;28;20685;-78
2021/12/28 04:41:09;;;;;;;12.80;8.33;;;5.00;99.90;;;;;;5050445;28;20215;-72
2021/12/28 04:43:36;;;;;;;15.43;8.87;;;5.10;99.90;;;;;;5050034;28;20248;-72
2021/12/28 04:46:03;;;;;;;15.50;9.37;;;5.30;99.90;;;;;;5050454;28;20199;-72
2021/12/28 04:48:31;;;;;;;14.63;8.63;;;5.20;99.90;;;;;;5050229;28;20269;-72
2021/12/28 04:50:58;;;;;;;15.17;9.40;;;5.20;99.90;;;;;;5050149;28;20195;-72
2021/12/28 04:53:25;;;;;;;14.03;9.20;;;5.10;99.90;;;;;;5050313;28;20714;-72
2021/12/28 04:55:53;;;;;;;14.77;9.20;;;5.30;99.90;;;;;;5050121;28;20748;-72
2021/12/28 04:58:21;;;;;;;16.50;9.70;;;5.20;99.90;;;;;;5049962;28;20557;-72
2021/12/28 05:00:50;;;;;;;12.93;8.30;;;5.20;99.90;;;;;;5049787;28;20207;-72
2021/12/28 05:03:19;;;;;;;13.40;8.43;;;5.30;99.90;;;;;;5049722;28;20261;-72
2021/12/28 05:05:51;;;;;;;14.60;9.00;;;5.30;99.90;;;;;;5049475;28;20292;-72
2021/12/28 05:08:20;;;;;;;15.70;9.30;;;5.20;99.90;;;;;;5049192;28;20653;-72
2021/12/28 05:10:47;;;;;;;14.50;9.33;;;5.30;99.90;;;;;;5050105;28;20199;-72
2021/12/28 05:13:16;;;;;;;13.90;8.77;;;5.40;99.90;;;;;;5047459;28;20226;-72
2021/12/28 05:15:44;;;;;;;13.77;8.70;;;5.40;99.90;;;;;;5049778;28;20222;-72
2021/12/28 05:18:12;;;;;;;13.77;8.53;;;5.20;99.90;;;;;;5049572;28;20222;-72
2021/12/28 05:20:40;;;;;;;14.43;9.33;;;5.30;99.90;;;;;;5049921;28;20203;-72
2021/12/28 05:23:07;;;;;;;13.97;8.33;;;5.20;99.90;;;;;;5049578;28;20199;-72
2021/12/28 05:25:35;;;;;;;16.90;8.97;;;5.10;99.90;;;;;;5050011;28;20207;-72
2021/12/28 05:28:02;;;;;;;14.10;9.13;;;5.10;99.90;;;;;;5049458;28;20234;-72
2021/12/28 05:30:31;;;;;;;15.20;9.23;;;5.30;99.90;;;;;;5049831;28;20199;-72
2021/12/28 05:32:58;;;;;;;16.40;9.17;;;5.20;99.90;;;;;;5049413;28;20230;-72
2021/12/28 05:35:26;;;;;;;16.10;9.00;;;5.30;99.90;;;;;;5049920;28;20258;-72
2021/12/28 05:37:53;;;;;;;16.37;9.07;;;5.50;99.90;;;;;;5049789;28;20261;-72
2021/12/28 05:40:20;;;;;;;17.33;9.50;;;5.70;99.90;;;;;;5048454;28;20272;-72
2021/12/28 05:42:47;;;;;;;19.17;9.43;;;5.80;99.90;;;;;;5046428;28;20199;-72
2021/12/28 05:45:15;;;;;;;13.87;8.70;;;5.80;99.90;;;;;;5047317;28;20211;-72
2021/12/28 05:47:43;;;;;;;14.63;8.23;;;5.70;99.90;;;;;;5049521;28;20459;-72
2021/12/28 05:50:11;;;;;;;15.50;8.67;;;5.70;99.90;;;;;;5048564;28;20284;-72
2021/12/28 05:52:38;;;;;;;18.60;8.23;;;5.70;99.90;;;;;;5049119;28;20203;-72
2021/12/28 05:55:07;;;;;;;16.77;9.33;;;5.60;99.90;;;;;;5049221;28;20609;-72
2021/12/28 05:57:34;;;;;;;16.57;8.70;;;5.70;99.90;;;;;;5047996;28;20211;-72
2021/12/28 06:00:01;;;;;;;16.33;9.13;;;5.70;99.90;;;;;;5048980;28;20222;-72
2021/12/28 06:02:28;;;;;;;16.07;8.47;;;5.70;99.90;;;;;;5049375;28;20242;-71
2021/12/28 06:04:56;;;;;;;15.27;8.80;;;5.70;99.90;;;;;;5047520;28;20779;-72
2021/12/28 06:07:27;;;;;;;18.57;9.23;;;5.80;99.90;;;;;;5049756;28;20269;-72
2021/12/28 06:09:55;;;;;;;18.90;9.60;;;6.00;99.90;;;;;;5048933;28;20577;-72
2021/12/28 06:12:22;;;;;;;17.37;9.43;;;6.00;99.90;;;;;;5048230;28;20199;-72
2021/12/28 06:14:49;;;;;;;16.10;8.23;;;6.00;99.90;;;;;;5049493;28;20609;-72
2021/12/28 06:17:17;;;;;;;17.67;10.13;;;5.80;99.90;;;;;;5050354;28;20228;-72
2021/12/28 06:19:44;;;;;;;14.83;8.87;;;5.80;99.90;;;;;;5052628;28;20253;-72
2021/12/28 06:22:12;;;;;;;17.07;9.10;;;5.60;99.90;;;;;;5052405;28;20611;-72
2021/12/28 06:24:39;;;;;;;17.27;8.53;;;5.70;99.90;;;;;;5052850;28;20261;-72
2021/12/28 06:27:06;;;;;;;15.37;8.53;;;5.60;99.90;;;;;;5052896;28;20238;-72
2021/12/28 06:29:33;;;;;;;15.90;8.57;;;5.60;99.90;;;;;;5052837;28;20602;-72
2021/12/28 06:32:00;;;;;;;14.17;8.83;;;5.40;99.90;;;;;;5052289;28;20719;-73
2021/12/28 06:34:27;;;;;;;15.73;8.70;;;5.30;99.90;;;;;;5052607;28;22141;-73
2021/12/28 06:36:54;;;;;;;14.17;8.17;;;5.30;99.90;;;;;;5053133;28;20448;-72
2021/12/28 06:39:23;;;;;;;14.70;8.73;;;5.30;99.90;;;;;;5052914;28;20195;-72
2021/12/28 06:41:50;;;;;;;17.70;9.43;;;5.20;99.90;;;;;;5052079;28;20203;-72
2021/12/28 06:44:17;;;;;;;16.03;9.07;;;5.40;99.90;;;;;;5052181;28;20431;-73
2021/12/28 06:46:44;;;;;;;16.70;8.80;;;5.50;99.90;;;;;;5052417;28;20609;-72
2021/12/28 06:49:11;;;;;;;12.80;8.10;;;5.60;99.90;;;;;;5052319;28;20592;-72
2021/12/28 06:51:38;;;;;;;16.20;8.17;;;5.30;99.90;;;;;;5051652;28;20595;-73
2021/12/28 06:54:05;;;;;;;21.40;10.23;;;5.60;99.90;;;;;;5052135;28;20199;-72
2021/12/28 06:56:34;;;;;;;17.47;9.57;;;5.40;99.90;;;;;;5051806;28;20344;-73
2021/12/28 06:59:01;;;;;;;16.40;8.47;;;5.20;99.90;;;;;;5052270;28;20203;-73
2021/12/28 07:01:28;;;;;;;18.90;9.10;;;5.10;99.90;;;;;;5051493;28;20203;-72
2021/12/28 07:03:55;;;;;;;16.93;8.70;;;4.90;99.90;;;;;;5049408;28;20549;-73
2021/12/28 07:06:24;;;;;;;14.50;8.20;;;5.10;99.90;;;;;;5050812;28;20720;-72
2021/12/28 07:08:51;;;;;;;16.23;9.20;;;5.00;99.90;;;;;;5051911;28;20214;-72
2021/12/28 07:11:18;;;;;;;16.57;8.70;;;4.90;99.90;;;;;;5051624;28;20195;-73
2021/12/28 07:13:47;;;;;;;16.30;8.87;;;5.00;99.90;;;;;;5051532;28;20195;-73
2021/12/28 07:16:14;;;;;;;16.27;9.20;;;5.00;99.90;;;;;;5051814;28;20754;-73
2021/12/28 07:18:41;;;;;;;18.70;8.47;;;4.90;99.90;;;;;;5051758;28;20252;-72
2021/12/28 07:21:08;;;;;;;13.13;8.07;;;4.90;99.90;;;;;;5051736;28;20207;-72
2021/12/28 07:23:35;;;;;;;17.13;8.90;;;4.70;99.90;;;;;;5049848;28;20199;-72
2021/12/28 07:26:02;;;;;;;19.33;9.67;;;4.60;99.90;;;;;;5051698;28;20207;-72
2021/12/28 07:28:29;;;;;;;18.70;9.50;;;4.80;99.90;;;;;;5051032;28;20272;-72
2021/12/28 07:30:57;;;;;;;21.60;11.73;;;4.70;99.90;;;;;;5049579;28;20700;-73
2021/12/28 07:33:24;;;;;;;17.77;9.27;;;4.80;99.90;;;;;;5050664;28;20257;-73
2021/12/28 07:35:51;;;;;;;19.37;9.00;;;4.90;99.90;;;;;;5046650;28;20227;-73
2021/12/28 07:38:18;;;;;;;22.70;9.57;;;5.00;99.90;;;;;;5050993;28;20199;-72
2021/12/28 07:40:46;;;;;;;21.43;9.67;;;5.10;99.90;;;;;;5050228;28;20249;-72
2021/12/28 07:43:13;;;;;;;20.83;9.93;;;5.00;99.90;;;;;;5049051;28;20199;-72
2021/12/28 07:45:40;;;;;;;20.20;8.90;;;4.90;99.90;;;;;;5050469;28;20249;-72
2021/12/28 07:48:09;;;;;;;17.63;9.40;;;5.10;99.90;;;;;;5050309;28;20253;-73
2021/12/28 07:50:36;;;;;;;19.67;9.17;;;5.10;99.90;;;;;;5049490;28;20276;-73
2021/12/28 07:53:03;;;;;;;19.63;9.23;;;5.10;99.90;;;;;;5049776;28;20648;-73
2021/12/28 07:55:30;;;;;;;16.80;8.53;;;5.00;99.90;;;;;;5048757;28;20231;-73
2021/12/28 07:57:57;;;;;;;22.00;9.63;;;5.10;99.90;;;;;;5050393;28;20560;-73
2021/12/28 08:00:25;;;;;;;19.30;8.83;;;5.30;99.90;;;;;;5050077;28;20191;-73
2021/12/28 08:02:53;;;;;;;18.40;9.37;;;5.60;99.90;;;;;;5049614;28;20210;-73
2021/12/28 08:05:21;;;;;;;20.80;8.80;;;5.50;99.90;;;;;;5049936;28;20570;-72
2021/12/28 08:07:48;;;;;;;19.40;8.13;;;5.50;99.90;;;;;;5050639;28;20246;-68
2021/12/28 08:10:17;;;;;;;16.50;8.63;;;5.50;99.90;;;;;;5048680;28;20203;-68
2021/12/28 08:12:46;;;;;;;18.07;8.53;;;5.50;99.90;;;;;;5049334;28;20272;-68
2021/12/28 08:15:14;;;;;;;18.10;8.67;;;5.80;99.90;;;;;;5050175;28;20701;-69
2021/12/28 08:17:41;;;;;;;18.37;7.80;;;5.90;99.90;;;;;;5050508;28;20641;-69
2021/12/28 08:20:10;;;;;;;14.93;7.43;;;5.80;99.90;;;;;;5049744;28;20203;-69
2021/12/28 08:22:39;;;;;;;15.57;7.37;;;5.90;99.90;;;;;;5048442;28;20661;-68
2021/12/28 08:25:08;;;;;;;16.40;7.77;;;5.90;99.90;;;;;;5049182;28;20203;-69
2021/12/28 08:27:35;;;;;;;19.67;8.30;;;5.90;99.90;;;;;;5049952;28;20256;-69
2021/12/28 08:30:03;;;;;;;17.93;8.40;;;5.60;99.90;;;;;;5045996;28;20200;-69
2021/12/28 08:32:30;;;;;;;17.50;8.27;;;5.70;99.90;;;;;;5047485;28;20203;-69
2021/12/28 08:34:57;;;;;;;27.90;15.00;;;5.60;99.90;;;;;;5045316;28;20226;-68
2021/12/28 08:37:24;;;;;;;24.13;12.63;;;5.40;99.90;;;;;;5045718;28;20296;-69
2021/12/28 08:39:52;;;;;;;15.87;10.33;;;5.40;99.90;;;;;;5045873;28;20265;-68
2021/12/28 08:42:21;;;;;;;18.73;9.70;;;5.30;99.90;;;;;;5049068;28;20292;-69
2021/12/28 08:44:48;;;;;;;27.23;15.87;;;5.30;99.90;;;;;;5049061;28;20214;-69
2021/12/28 08:47:15;;;;;;;15.73;7.83;;;5.20;99.90;;;;;;5044835;28;20199;-69
2021/12/28 08:49:42;;;;;;;18.57;8.83;;;5.30;99.90;;;;;;5048192;28;20211;-69
2021/12/28 08:52:09;;;;;;;18.90;8.63;;;5.40;99.90;;;;;;5047760;28;20203;-69
2021/12/28 08:54:36;;;;;;;15.17;7.93;;;5.40;99.90;;;;;;5048620;28;20529;-68
2021/12/28 08:57:05;;;;;;;16.50;7.70;;;5.50;99.90;;;;;;5047799;28;20284;-69
2021/12/28 08:59:32;;;;;;;13.90;6.97;;;5.80;99.90;;;;;;5047510;28;20279;-69
2021/12/28 09:02:00;;;;;;;17.63;6.70;;;6.00;99.90;;;;;;5047762;28;20199;-70
2021/12/28 09:04:27;;;;;;;16.43;7.60;;;6.30;99.90;;;;;;5047820;28;20235;-69
2021/12/28 09:06:54;;;;;;;12.80;5.97;;;6.40;99.90;;;;;;5045868;28;20202;-69
2021/12/28 09:09:21;;;;;;;19.27;7.37;;;6.80;99.90;;;;;;5048334;28;20703;-69
2021/12/28 09:11:48;;;;;;;16.47;5.80;;;6.80;99.90;;;;;;5046933;28;20207;-69
2021/12/28 09:14:17;;;;;;;13.50;5.93;;;7.00;99.90;;;;;;5047749;28;20206;-69
2021/12/28 09:16:44;;;;;;;18.70;5.73;;;7.00;99.90;;;;;;5047732;28;20226;-69
2021/12/28 09:19:11;;;;;;;17.33;6.97;;;7.00;99.90;;;;;;5047602;28;20195;-69
2021/12/28 09:21:38;;;;;;;12.80;6.30;;;7.30;99.90;;;;;;5046218;28;20265;-68
2021/12/28 09:24:21;;;;;;;29.43;7.03;;;7.40;99.90;;;;;;5046053;28;20203;-69
2021/12/28 09:26:48;;;;;;;16.57;6.53;;;7.10;99.90;;;;;;5046843;28;20253;-69
2021/12/28 09:29:16;;;;;;;16.27;6.40;;;6.80;99.90;;;;;;5047989;28;20211;-69
2021/12/28 09:31:44;;;;;;;14.37;6.50;;;7.00;99.90;;;;;;5047312;28;20657;-69
2021/12/28 09:34:11;;;;;;;13.23;5.53;;;7.30;99.90;;;;;;5048741;28;20207;-69
2021/12/28 09:36:40;;;;;;;11.33;5.47;;;7.50;99.90;;;;;;5049273;28;20284;-69
2021/12/28 09:39:08;;;;;;;12.57;5.97;;;7.40;99.90;;;;;;5048674;28;20206;-69
2021/12/28 09:41:35;;;;;;;11.47;5.50;;;7.60;99.90;;;;;;5049079;28;20195;-68
2021/12/28 09:44:03;;;;;;;11.40;5.60;;;7.40;99.90;;;;;;5048965;28;20195;-69
2021/12/28 09:46:31;;;;;;;9.03;4.10;;;7.20;99.90;;;;;;5048870;28;20594;-69
2021/12/28 09:48:59;;;;;;;11.27;4.50;;;7.30;99.90;;;;;;5048828;28;20210;-69
2021/12/28 09:51:26;;;;;;;12.10;4.63;;;7.50;99.90;;;;;;5049782;28;20203;-68
2021/12/28 09:53:54;;;;;;;9.10;4.87;;;7.50;99.90;;;;;;5052154;28;20213;-69
2021/12/28 09:56:21;;;;;;;10.80;4.57;;;7.50;99.90;;;;;;5053674;28;20317;-69
2021/12/28 09:58:49;;;;;;;11.20;5.07;;;7.70;99.90;;;;;;5052360;28;21255;-68
2021/12/28 10:01:16;;;;;;;11.30;4.80;;;7.70;99.90;;;;;;5051702;28;20199;-69
2021/12/28 10:03:45;;;;;;;11.10;4.20;;;7.60;99.90;;;;;;5050973;28;20202;-69
2021/12/28 10:06:19;;;;;;;8.43;4.67;;;7.70;99.90;;;;;;5051562;28;20207;-69
2021/12/28 10:08:47;;;;;;;13.37;4.37;;;7.80;99.90;;;;;;5049800;28;20202;-69
2021/12/28 10:11:15;;;;;;;9.07;4.47;;;7.70;99.90;;;;;;5051834;28;20203;-69
2021/12/28 10:13:43;;;;;;;10.37;4.33;;;7.70;99.90;;;;;;5050866;28;20610;-69
2021/12/28 10:16:10;;;;;;;10.07;4.07;;;7.60;99.90;;;;;;5049595;28;20243;-68
2021/12/28 10:18:37;;;;;;;10.47;4.37;;;7.60;99.90;;;;;;5051601;28;20218;-68
2021/12/28 10:21:05;;;;;;;12.63;4.43;;;7.60;99.90;;;;;;5049807;28;20206;-68
2021/12/28 10:23:34;;;;;;;8.07;4.10;;;7.60;99.90;;;;;;5049073;28;20298;-68
2021/12/28 10:26:05;;;;;;;7.47;4.10;;;7.70;99.90;;;;;;5052183;28;20203;-68
2021/12/28 10:28:35;;;;;;;10.37;5.13;;;7.60;99.90;;;;;;5050959;28;20207;-68
2021/12/28 10:31:05;;;;;;;5.33;3.43;;;7.70;99.90;;;;;;5050410;28;20199;-68
2021/12/28 10:33:36;;;;;;;9.00;4.33;;;7.70;99.90;;;;;;5050532;28;20571;-68
2021/12/28 10:36:08;;;;;;;12.83;5.03;;;7.70;99.90;;;;;;5052008;28;20310;-68
2021/12/28 10:38:36;;;;;;;9.70;4.27;;;7.70;99.90;;;;;;5048394;28;20207;-69
2021/12/28 10:41:07;;;;;;;10.70;4.23;;;7.70;99.90;;;;;;5051442;28;20204;-68
2021/12/28 10:43:36;;;;;;;8.60;4.60;;;7.60;99.90;;;;;;5050071;28;20201;-68
2021/12/28 10:46:06;;;;;;;10.03;4.20;;;7.60;99.90;;;;;;5048045;28;20672;-68
2021/12/28 10:48:37;;;;;;;7.17;4.40;;;7.70;99.90;;;;;;5051789;28;20203;-68
2021/12/28 10:51:11;;;;;;;8.57;4.00;;;7.80;99.90;;;;;;5048552;28;20286;-68
2021/12/28 10:53:54;;;;;;;8.07;4.80;;;7.80;99.90;;;;;;5049747;28;20207;-68
2021/12/28 10:56:21;;;;;;;9.87;4.20;;;7.70;99.90;;;;;;5049390;28;20226;-68
2021/12/28 10:58:50;;;;;;;8.10;4.20;;;7.70;99.90;;;;;;5049977;28;20437;-68
2021/12/28 11:01:19;;;;;;;6.57;3.80;;;7.70;99.90;;;;;;5046175;28;20203;-69
2021/12/28 11:03:48;;;;;;;11.67;4.67;;;7.70;99.90;;;;;;5048508;28;20207;-69
2021/12/28 11:06:20;;;;;;;9.27;4.30;;;7.70;99.90;;;;;;5047953;28;20214;-69
2021/12/28 11:08:56;;;;;;;6.93;4.00;;;7.70;99.90;;;;;;5052532;28;20207;-69
2021/12/28 11:11:25;;;;;;;7.50;4.30;;;7.80;99.90;;;;;;5049772;28;20237;-69
2021/12/28 11:13:55;;;;;;;7.47;4.10;;;7.90;99.90;;;;;;5050686;28;20222;-68
2021/12/28 11:16:26;;;;;;;8.47;3.87;;;7.90;99.90;;;;;;5047898;28;20739;-69
2021/12/28 11:18:55;;;;;;;7.47;4.03;;;8.00;99.90;;;;;;5049260;28;20210;-69
2021/12/28 11:21:27;;;;;;;6.60;4.07;;;8.00;99.90;;;;;;5043141;28;20658;-69
2021/12/28 11:23:57;;;;;;;7.40;3.83;;;8.10;99.90;;;;;;5048634;28;20582;-69
2021/12/28 11:26:27;;;;;;;8.40;3.87;;;8.00;99.90;;;;;;5048408;28;20207;-69
2021/12/28 11:29:00;;;;;;;10.07;5.00;;;8.00;99.90;;;;;;5048917;28;20203;-69
2021/12/28 11:31:30;;;;;;;8.73;4.40;;;8.10;99.90;;;;;;5046652;28;20250;-66
2021/12/28 11:34:06;;;;;;;7.70;4.00;;;8.10;99.90;;;;;;5047804;28;20199;-71
2021/12/28 11:36:37;;;;;;;8.30;4.07;;;8.10;99.90;;;;;;5049369;28;20223;-71
2021/12/28 11:39:07;;;;;;;10.27;4.40;;;8.20;99.90;;;;;;5048335;28;20209;-71
2021/12/28 11:41:35;;;;;;;7.43;3.80;;;8.30;99.90;;;;;;5046690;28;20203;-71
2021/12/28 11:44:03;;;;;;;7.80;3.73;;;8.40;99.90;;;;;;5048116;28;20203;-71
2021/12/28 11:46:30;;;;;;;6.97;3.70;;;8.50;99.90;;;;;;5048342;28;20286;-72
2021/12/28 11:48:58;;;;;;;6.13;3.50;;;8.50;99.90;;;;;;5048678;28;20199;-72
2021/12/28 11:51:27;;;;;;;6.03;3.37;;;8.70;99.90;;;;;;5048391;28;20278;-72
2021/12/28 11:53:56;;;;;;;8.60;3.80;;;8.80;99.90;;;;;;5047582;28;20292;-72
2021/12/28 11:56:29;;;;;;;6.50;3.90;;;8.90;99.90;;;;;;5048108;28;20250;-72
2021/12/28 11:59:01;;;;;;;7.53;3.83;;;8.90;99.90;;;;;;5046913;28;20203;-72
2021/12/28 12:01:43;;;;;;;8.70;3.80;;;8.90;99.90;;;;;;5047458;28;20207;-72
2021/12/28 12:04:44;;;;;;;7.27;3.70;;;9.00;99.90;;;;;;5048286;28;20572;-72
2021/12/28 12:07:18;;;;;;;6.27;3.73;;;9.00;99.90;;;;;;5045814;28;20195;-72
2021/12/28 12:10:17;;;;;;;6.10;3.17;;;9.00;99.90;;;;;;5048427;28;20585;-71
2021/12/28 12:12:53;;;;;;;6.27;3.67;;;9.00;99.90;;;;;;5044107;28;20227;-72
2021/12/28 12:15:23;;;;;;;9.73;4.17;;;8.90;99.90;;;;;;5047528;28;20199;-72
2021/12/28 12:17:50;;;;;;;8.60;3.97;;;8.80;99.90;;;;;;5047809;28;20219;-72
2021/12/28 12:20:30;;;;;;;8.83;4.00;;;8.70;99.90;;;;;;5048746;28;20203;-72
2021/12/28 12:23:18;;;;;;;7.87;4.10;;;8.60;99.90;;;;;;5047196;28;20218;-72
2021/12/28 12:26:05;;;;;;;5.40;3.60;;;8.60;99.90;;;;;;5050519;28;20233;-72
2021/12/28 12:28:50;;;;;;;5.27;3.67;;;8.60;99.90;;;;;;5048018;28;20202;-72
2021/12/28 12:31:30;;;;;;;7.60;3.73;;;8.50;99.90;;;;;;5047799;28;20203;-73
2021/12/28 12:33:58;;;;;;;7.13;3.60;;;8.50;99.90;;;;;;5048414;28;20205;-72
2021/12/28 12:36:35;;;;;;;10.73;6.13;;;8.40;99.90;;;;;;5049958;28;20218;-73
2021/12/28 12:39:05;;;;;;;8.00;4.07;;;8.40;99.90;;;;;;5045660;28;20431;-73
2021/12/28 12:41:49;;;;;;;6.43;3.63;;;8.40;99.90;;;;;;5046673;28;20214;-73
2021/12/28 12:44:19;;;;;;;7.87;4.03;;;8.30;99.90;;;;;;5045432;28;20207;-73
2021/12/28 12:46:47;;;;;;;7.70;3.50;;;8.30;99.90;;;;;;5049318;28;20207;-73
2021/12/28 12:49:36;;;;;;;6.10;3.73;;;8.20;99.90;;;;;;5049931;28;20199;-73
2021/12/28 12:52:13;;;;;;;6.30;3.90;;;8.20;99.90;;;;;;5049109;28;20245;-73
2021/12/28 12:54:45;;;;;;;9.70;4.20;;;8.20;99.90;;;;;;5047894;28;20202;-73